Forside
METAR-TAF:

METAR-TAF

Lufthavne :

Kitakyushu, Japan

Breddekreds: 33-50N, længdekreds: 130-57E, højde: 3 m

Aktuelle vejr

Denne rapport blev lavet for 1 time og 7 minutter siden, kl. 01:00 UTC
Vind 4 kt fra nordvest, varierende mellem vest og nordnordøst
Temperatur 25°C
Fugtighed 57%
Tryk 1010 hPa
Sigt 10 km eller mere
Nogle få skyer i en højde af 2000 ft

METAR: RJFR 070100Z 31004KT 260V020 9999 FEW020 25/16 Q1010

Tid: 11:07 (02:07 UTC)

Vejrudsigter

Denne rapport blev lavet for 3 timer og 0 minutter siden, kl. 23:07 UTC
Foreløbig gælder fra 07 på 00 UTC til 08 på 06 UTC
Vind 8 kt fra nordnordvest
Sigt 10 km eller mere
Nogle få skyer i en højde af 3000 ft
ændring
fra 07 på 18 UTC til 07 på 21 UTC
Vind 6 kt fra øst

TAF: RJFR 062307Z 0700/0806 34008KT 9999 FEW030 BECMG 0718/0721 10006KT

Vejrobservationer og prognoser fra mere end 4000 lufthavne (METAR og TAF).

De gule og røde prikker repræsenterer de meteorologiske stationer.

Flyt musen over at se navnet på stationen.

Så klik over at se vejr observationer og prognoser.

At skifte det kort: Klik på de grønne knapper med et sort kors for at zoome ind; på den grønne knap med en bindestreg for at zoome ud; eller på de grønne pile for tilstødende kort.


METAR-TAF: